sensor_id;sensor_type;location;lat;lon;timestamp;temperature;humidity
19941;DHT22;10132;50.864;5.176;2023-04-01T00:00:47;9.60;99.90
19941;DHT22;10132;50.864;5.176;2023-04-01T00:02:49;9.60;99.90
19941;DHT22;10132;50.864;5.176;2023-04-01T00:04:51;9.50;99.90
19941;DHT22;10132;50.864;5.176;2023-04-01T00:06:53;9.60;99.90
19941;DHT22;10132;50.864;5.176;2023-04-01T00:08:55;9.60;99.90
19941;DHT22;10132;50.864;5.176;2023-04-01T00:10:57;9.60;99.90
19941;DHT22;10132;50.864;5.176;2023-04-01T00:13:00;9.60;99.90
19941;DHT22;10132;50.864;5.176;2023-04-01T00:15:06;9.60;99.90
19941;DHT22;10132;50.864;5.176;2023-04-01T00:17:08;9.60;99.90
19941;DHT22;10132;50.864;5.176;2023-04-01T00:19:13;9.70;99.90
19941;DHT22;10132;50.864;5.176;2023-04-01T00:21:15;9.60;99.90
19941;DHT22;10132;50.864;5.176;2023-04-01T00:23:19;9.70;99.90
19941;DHT22;10132;50.864;5.176;2023-04-01T00:25:21;9.60;99.90
19941;DHT22;10132;50.864;5.176;2023-04-01T00:27:24;9.60;99.90
19941;DHT22;10132;50.864;5.176;2023-04-01T00:29:28;9.70;99.90
19941;DHT22;10132;50.864;5.176;2023-04-01T00:31:31;9.70;99.90
19941;DHT22;10132;50.864;5.176;2023-04-01T00:33:33;9.70;99.90
19941;DHT22;10132;50.864;5.176;2023-04-01T00:35:35;9.70;99.90
19941;DHT22;10132;50.864;5.176;2023-04-01T00:37:37;9.70;99.90
19941;DHT22;10132;50.864;5.176;2023-04-01T00:39:40;9.60;99.90
19941;DHT22;10132;50.864;5.176;2023-04-01T00:41:42;9.70;99.90
19941;DHT22;10132;50.864;5.176;2023-04-01T00:43:45;9.60;99.90
19941;DHT22;10132;50.864;5.176;2023-04-01T00:45:49;9.60;99.90
19941;DHT22;10132;50.864;5.176;2023-04-01T00:47:51;9.60;99.90
19941;DHT22;10132;50.864;5.176;2023-04-01T00:49:55;9.60;99.90
19941;DHT22;10132;50.864;5.176;2023-04-01T00:51:59;9.60;99.90
19941;DHT22;10132;50.864;5.176;2023-04-01T00:54:02;9.60;99.90
19941;DHT22;10132;50.864;5.176;2023-04-01T00:56:07;9.60;99.90
19941;DHT22;10132;50.864;5.176;2023-04-01T00:58:15;9.60;99.90
19941;DHT22;10132;50.864;5.176;2023-04-01T01:00:18;9.60;99.90
19941;DHT22;10132;50.864;5.176;2023-04-01T01:02:24;9.60;99.90
19941;DHT22;10132;50.864;5.176;2023-04-01T01:04:28;9.70;99.90
19941;DHT22;10132;50.864;5.176;2023-04-01T01:06:40;9.70;99.90
19941;DHT22;10132;50.864;5.176;2023-04-01T01:09:14;9.70;99.90
19941;DHT22;10132;50.864;5.176;2023-04-01T01:11:24;9.70;99.90
19941;DHT22;10132;50.864;5.176;2023-04-01T01:13:35;9.70;99.90
19941;DHT22;10132;50.864;5.176;2023-04-01T01:15:43;9.70;99.90
19941;DHT22;10132;50.864;5.176;2023-04-01T01:17:56;9.70;99.90
19941;DHT22;10132;50.864;5.176;2023-04-01T01:20:24;9.60;99.90
19941;DHT22;10132;50.864;5.176;2023-04-01T01:22:55;9.60;99.90
19941;DHT22;10132;50.864;5.176;2023-04-01T01:25:13;9.60;99.90
19941;DHT22;10132;50.864;5.176;2023-04-01T01:27:18;9.60;99.90
19941;DHT22;10132;50.864;5.176;2023-04-01T01:29:51;9.60;99.90
19941;DHT22;10132;50.864;5.176;2023-04-01T01:32:04;9.70;99.90
19941;DHT22;10132;50.864;5.176;2023-04-01T01:34:16;9.70;99.90
19941;DHT22;10132;50.864;5.176;2023-04-01T01:36:23;9.60;99.90
19941;DHT22;10132;50.864;5.176;2023-04-01T01:38:31;9.60;99.90
19941;DHT22;10132;50.864;5.176;2023-04-01T01:40:34;9.60;99.90
19941;DHT22;10132;50.864;5.176;2023-04-01T01:42:40;9.50;99.90
19941;DHT22;10132;50.864;5.176;2023-04-01T01:44:46;9.50;99.90
19941;DHT22;10132;50.864;5.176;2023-04-01T01:46:49;9.50;99.90
19941;DHT22;10132;50.864;5.176;2023-04-01T01:48:52;9.50;99.90
19941;DHT22;10132;50.864;5.176;2023-04-01T01:50:55;9.50;99.90
19941;DHT22;10132;50.864;5.176;2023-04-01T01:53:03;9.50;99.90
19941;DHT22;10132;50.864;5.176;2023-04-01T01:55:23;9.50;99.90
19941;DHT22;10132;50.864;5.176;2023-04-01T01:57:29;9.50;99.90
19941;DHT22;10132;50.864;5.176;2023-04-01T01:59:36;9.50;99.90
19941;DHT22;10132;50.864;5.176;2023-04-01T02:01:41;9.50;99.90
19941;DHT22;10132;50.864;5.176;2023-04-01T02:03:45;9.50;99.90
19941;DHT22;10132;50.864;5.176;2023-04-01T02:05:49;9.50;99.90
19941;DHT22;10132;50.864;5.176;2023-04-01T02:07:56;9.50;99.90
19941;DHT22;10132;50.864;5.176;2023-04-01T02:10:01;9.50;99.90
19941;DHT22;10132;50.864;5.176;2023-04-01T02:12:05;9.50;99.90
19941;DHT22;10132;50.864;5.176;2023-04-01T02:14:10;9.50;99.90
19941;DHT22;10132;50.864;5.176;2023-04-01T02:16:15;9.50;99.90
19941;DHT22;10132;50.864;5.176;2023-04-01T02:18:21;9.50;99.90
19941;DHT22;10132;50.864;5.176;2023-04-01T02:20:24;9.60;99.90
19941;DHT22;10132;50.864;5.176;2023-04-01T02:22:28;9.60;99.90
19941;DHT22;10132;50.864;5.176;2023-04-01T02:24:32;9.60;99.90
19941;DHT22;10132;50.864;5.176;2023-04-01T02:26:39;9.60;99.90
19941;DHT22;10132;50.864;5.176;2023-04-01T02:28:43;9.60;99.90
19941;DHT22;10132;50.864;5.176;2023-04-01T02:30:49;9.60;99.90
19941;DHT22;10132;50.864;5.176;2023-04-01T02:32:52;9.60;99.90
19941;DHT22;10132;50.864;5.176;2023-04-01T02:34:55;9.60;99.90
19941;DHT22;10132;50.864;5.176;2023-04-01T02:36:59;9.60;99.90
19941;DHT22;10132;50.864;5.176;2023-04-01T02:39:02;9.60;99.90
19941;DHT22;10132;50.864;5.176;2023-04-01T02:41:05;9.60;99.90
19941;DHT22;10132;50.864;5.176;2023-04-01T02:43:08;9.60;99.90
19941;DHT22;10132;50.864;5.176;2023-04-01T02:45:11;9.60;99.90
19941;DHT22;10132;50.864;5.176;2023-04-01T02:47:14;9.60;99.90
19941;DHT22;10132;50.864;5.176;2023-04-01T02:49:16;9.60;99.90
19941;DHT22;10132;50.864;5.176;2023-04-01T02:51:18;9.60;99.90
19941;DHT22;10132;50.864;5.176;2023-04-01T02:53:20;9.70;99.90
19941;DHT22;10132;50.864;5.176;2023-04-01T02:55:22;9.70;99.90
19941;DHT22;10132;50.864;5.176;2023-04-01T02:57:24;9.70;99.90
19941;DHT22;10132;50.864;5.176;2023-04-01T02:59:28;9.70;99.90
19941;DHT22;10132;50.864;5.176;2023-04-01T03:01:29;9.60;99.90
19941;DHT22;10132;50.864;5.176;2023-04-01T03:03:31;9.60;99.90
19941;DHT22;10132;50.864;5.176;2023-04-01T03:05:33;9.60;99.90
19941;DHT22;10132;50.864;5.176;2023-04-01T03:07:35;9.60;99.90
19941;DHT22;10132;50.864;5.176;2023-04-01T03:09:37;9.60;99.90
19941;DHT22;10132;50.864;5.176;2023-04-01T03:11:39;9.60;99.90
19941;DHT22;10132;50.864;5.176;2023-04-01T03:13:42;9.60;99.90
19941;DHT22;10132;50.864;5.176;2023-04-01T03:15:45;9.50;99.90
19941;DHT22;10132;50.864;5.176;2023-04-01T03:17:47;9.50;99.90
19941;DHT22;10132;50.864;5.176;2023-04-01T03:19:49;9.50;99.90
19941;DHT22;10132;50.864;5.176;2023-04-01T03:21:51;9.50;99.90
19941;DHT22;10132;50.864;5.176;2023-04-01T03:23:53;9.50;99.90
19941;DHT22;10132;50.864;5.176;2023-04-01T03:25:55;9.50;99.90
19941;DHT22;10132;50.864;5.176;2023-04-01T03:27:57;9.50;99.90
19941;DHT22;10132;50.864;5.176;2023-04-01T03:30:00;9.50;99.90
19941;DHT22;10132;50.864;5.176;2023-04-01T03:32:03;9.50;99.90
19941;DHT22;10132;50.864;5.176;2023-04-01T03:34:05;9.50;99.90
19941;DHT22;10132;50.864;5.176;2023-04-01T03:36:08;9.50;99.90
19941;DHT22;10132;50.864;5.176;2023-04-01T03:38:12;9.50;99.90
19941;DHT22;10132;50.864;5.176;2023-04-01T03:40:14;9.50;99.90
19941;DHT22;10132;50.864;5.176;2023-04-01T03:42:16;9.50;99.90
19941;DHT22;10132;50.864;5.176;2023-04-01T03:44:18;9.50;99.90
19941;DHT22;10132;50.864;5.176;2023-04-01T03:46:20;9.40;99.90
19941;DHT22;10132;50.864;5.176;2023-04-01T03:48:24;9.40;99.90
19941;DHT22;10132;50.864;5.176;2023-04-01T03:50:27;9.40;99.90
19941;DHT22;10132;50.864;5.176;2023-04-01T03:52:28;9.40;99.90
19941;DHT22;10132;50.864;5.176;2023-04-01T03:54:30;9.40;99.90
19941;DHT22;10132;50.864;5.176;2023-04-01T03:56:32;9.30;99.90
19941;DHT22;10132;50.864;5.176;2023-04-01T03:58:34;9.40;99.90
19941;DHT22;10132;50.864;5.176;2023-04-01T04:00:36;9.30;99.90
19941;DHT22;10132;50.864;5.176;2023-04-01T04:02:38;9.30;99.90
19941;DHT22;10132;50.864;5.176;2023-04-01T04:04:42;9.20;99.90
19941;DHT22;10132;50.864;5.176;2023-04-01T04:06:44;9.20;99.90
19941;DHT22;10132;50.864;5.176;2023-04-01T04:08:46;9.20;99.90
19941;DHT22;10132;50.864;5.176;2023-04-01T04:10:53;9.30;99.90
19941;DHT22;10132;50.864;5.176;2023-04-01T04:12:56;9.30;99.90
19941;DHT22;10132;50.864;5.176;2023-04-01T04:14:58;9.30;99.90
19941;DHT22;10132;50.864;5.176;2023-04-01T04:17:00;9.30;99.90
19941;DHT22;10132;50.864;5.176;2023-04-01T04:19:02;9.30;99.90
19941;DHT22;10132;50.864;5.176;2023-04-01T04:21:06;9.30;99.90
19941;DHT22;10132;50.864;5.176;2023-04-01T04:23:08;9.40;99.90
19941;DHT22;10132;50.864;5.176;2023-04-01T04:25:10;9.40;99.90
19941;DHT22;10132;50.864;5.176;2023-04-01T04:27:12;9.40;99.90
19941;DHT22;10132;50.864;5.176;2023-04-01T04:29:14;9.40;99.90
19941;DHT22;10132;50.864;5.176;2023-04-01T04:31:18;9.40;99.90
19941;DHT22;10132;50.864;5.176;2023-04-01T04:33:21;9.40;99.90
19941;DHT22;10132;50.864;5.176;2023-04-01T04:35:23;9.50;99.90
19941;DHT22;10132;50.864;5.176;2023-04-01T04:37:26;9.40;99.90
19941;DHT22;10132;50.864;5.176;2023-04-01T04:39:29;9.40;99.90
19941;DHT22;10132;50.864;5.176;2023-04-01T04:41:31;9.40;99.90
19941;DHT22;10132;50.864;5.176;2023-04-01T04:43:32;9.40;99.90
19941;DHT22;10132;50.864;5.176;2023-04-01T04:45:34;9.40;99.90
19941;DHT22;10132;50.864;5.176;2023-04-01T04:47:36;9.40;99.90
19941;DHT22;10132;50.864;5.176;2023-04-01T04:49:38;9.40;99.90
19941;DHT22;10132;50.864;5.176;2023-04-01T04:51:40;9.40;99.90
19941;DHT22;10132;50.864;5.176;2023-04-01T04:53:44;9.50;99.90
19941;DHT22;10132;50.864;5.176;2023-04-01T04:55:48;9.50;99.90
19941;DHT22;10132;50.864;5.176;2023-04-01T04:57:50;9.50;99.90
19941;DHT22;10132;50.864;5.176;2023-04-01T04:59:52;9.50;99.90
19941;DHT22;10132;50.864;5.176;2023-04-01T05:01:54;9.50;99.90
19941;DHT22;10132;50.864;5.176;2023-04-01T05:03:56;9.50;99.90
19941;DHT22;10132;50.864;5.176;2023-04-01T05:05:58;9.40;99.90
19941;DHT22;10132;50.864;5.176;2023-04-01T05:08:00;9.40;99.90
19941;DHT22;10132;50.864;5.176;2023-04-01T05:10:04;9.40;99.90
19941;DHT22;10132;50.864;5.176;2023-04-01T05:12:06;9.40;99.90
19941;DHT22;10132;50.864;5.176;2023-04-01T05:14:12;9.30;99.90
19941;DHT22;10132;50.864;5.176;2023-04-01T05:16:16;9.30;99.90
19941;DHT22;10132;50.864;5.176;2023-04-01T05:18:18;9.30;99.90
19941;DHT22;10132;50.864;5.176;2023-04-01T05:20:20;9.30;99.90
19941;DHT22;10132;50.864;5.176;2023-04-01T05:22:22;9.30;99.90
19941;DHT22;10132;50.864;5.176;2023-04-01T05:24:24;9.30;99.90
19941;DHT22;10132;50.864;5.176;2023-04-01T05:26:27;9.30;99.90
19941;DHT22;10132;50.864;5.176;2023-04-01T05:28:29;9.30;99.90
19941;DHT22;10132;50.864;5.176;2023-04-01T05:30:31;9.30;99.90
19941;DHT22;10132;50.864;5.176;2023-04-01T05:32:33;9.30;99.90
19941;DHT22;10132;50.864;5.176;2023-04-01T05:34:35;9.30;99.90
19941;DHT22;10132;50.864;5.176;2023-04-01T05:36:37;9.30;99.90
19941;DHT22;10132;50.864;5.176;2023-04-01T05:38:39;9.30;99.90
19941;DHT22;10132;50.864;5.176;2023-04-01T05:40:42;9.30;99.90
19941;DHT22;10132;50.864;5.176;2023-04-01T05:42:46;9.20;99.90
19941;DHT22;10132;50.864;5.176;2023-04-01T05:44:48;9.30;99.90
19941;DHT22;10132;50.864;5.176;2023-04-01T05:46:50;9.20;99.90
19941;DHT22;10132;50.864;5.176;2023-04-01T05:48:52;9.20;99.90
19941;DHT22;10132;50.864;5.176;2023-04-01T05:50:54;9.20;99.90
19941;DHT22;10132;50.864;5.176;2023-04-01T05:52:56;9.20;99.90
19941;DHT22;10132;50.864;5.176;2023-04-01T05:54:58;9.20;99.90
19941;DHT22;10132;50.864;5.176;2023-04-01T05:57:01;9.20;99.90
19941;DHT22;10132;50.864;5.176;2023-04-01T05:59:04;9.20;99.90
19941;DHT22;10132;50.864;5.176;2023-04-01T06:01:08;9.20;99.90
19941;DHT22;10132;50.864;5.176;2023-04-01T06:03:10;9.20;99.90
19941;DHT22;10132;50.864;5.176;2023-04-01T06:05:15;9.20;99.90
19941;DHT22;10132;50.864;5.176;2023-04-01T06:07:18;9.30;99.90
19941;DHT22;10132;50.864;5.176;2023-04-01T06:09:25;9.30;99.90
19941;DHT22;10132;50.864;5.176;2023-04-01T06:11:35;9.30;99.90
19941;DHT22;10132;50.864;5.176;2023-04-01T06:13:54;9.30;99.90
19941;DHT22;10132;50.864;5.176;2023-04-01T06:16:09;9.30;99.90
19941;DHT22;10132;50.864;5.176;2023-04-01T06:18:46;9.30;99.90
19941;DHT22;10132;50.864;5.176;2023-04-01T06:20:57;9.30;99.90
19941;DHT22;10132;50.864;5.176;2023-04-01T06:23:10;9.40;99.90
19941;DHT22;10132;50.864;5.176;2023-04-01T06:25:24;9.30;99.90
19941;DHT22;10132;50.864;5.176;2023-04-01T06:27:41;9.40;99.90
19941;DHT22;10132;50.864;5.176;2023-04-01T06:29:58;9.40;99.90
19941;DHT22;10132;50.864;5.176;2023-04-01T06:32:20;9.40;99.90
19941;DHT22;10132;50.864;5.176;2023-04-01T06:34:40;9.50;99.90
19941;DHT22;10132;50.864;5.176;2023-04-01T06:37:10;9.40;99.90
19941;DHT22;10132;50.864;5.176;2023-04-01T06:39:27;9.40;99.90
19941;DHT22;10132;50.864;5.176;2023-04-01T06:44:16;9.30;99.90
19941;DHT22;10132;50.864;5.176;2023-04-01T06:46:25;9.40;99.90
19941;DHT22;10132;50.864;5.176;2023-04-01T06:48:40;9.30;99.90
19941;DHT22;10132;50.864;5.176;2023-04-01T06:50:51;9.30;99.90
19941;DHT22;10132;50.864;5.176;2023-04-01T06:53:05;9.40;99.90
19941;DHT22;10132;50.864;5.176;2023-04-01T06:55:22;9.30;99.90
19941;DHT22;10132;50.864;5.176;2023-04-01T06:57:29;9.30;99.90
19941;DHT22;10132;50.864;5.176;2023-04-01T06:59:34;9.30;99.90
19941;DHT22;10132;50.864;5.176;2023-04-01T07:01:41;9.30;99.90
19941;DHT22;10132;50.864;5.176;2023-04-01T07:03:50;9.40;99.90
19941;DHT22;10132;50.864;5.176;2023-04-01T07:05:54;9.40;99.90
19941;DHT22;10132;50.864;5.176;2023-04-01T07:08:01;9.30;99.90
19941;DHT22;10132;50.864;5.176;2023-04-01T07:10:09;9.30;99.90
19941;DHT22;10132;50.864;5.176;2023-04-01T07:12:18;9.30;99.90
19941;DHT22;10132;50.864;5.176;2023-04-01T07:14:25;9.30;99.90
19941;DHT22;10132;50.864;5.176;2023-04-01T07:16:32;9.30;99.90
19941;DHT22;10132;50.864;5.176;2023-04-01T07:18:38;9.30;99.90
19941;DHT22;10132;50.864;5.176;2023-04-01T07:20:44;9.30;99.90
19941;DHT22;10132;50.864;5.176;2023-04-01T07:22:49;9.40;99.90
19941;DHT22;10132;50.864;5.176;2023-04-01T07:24:53;9.40;99.90
19941;DHT22;10132;50.864;5.176;2023-04-01T07:26:58;9.40;99.90
19941;DHT22;10132;50.864;5.176;2023-04-01T07:29:00;9.40;99.90
19941;DHT22;10132;50.864;5.176;2023-04-01T07:31:11;9.40;99.90
19941;DHT22;10132;50.864;5.176;2023-04-01T07:33:20;9.40;99.90
19941;DHT22;10132;50.864;5.176;2023-04-01T07:35:26;9.40;99.90
19941;DHT22;10132;50.864;5.176;2023-04-01T07:37:38;9.40;99.90
19941;DHT22;10132;50.864;5.176;2023-04-01T07:39:54;9.40;99.90
19941;DHT22;10132;50.864;5.176;2023-04-01T07:42:04;9.50;99.90
19941;DHT22;10132;50.864;5.176;2023-04-01T07:44:15;9.50;99.90
19941;DHT22;10132;50.864;5.176;2023-04-01T07:46:31;9.50;99.90
19941;DHT22;10132;50.864;5.176;2023-04-01T07:48:41;9.40;99.90
19941;DHT22;10132;50.864;5.176;2023-04-01T07:50:48;9.50;99.90
19941;DHT22;10132;50.864;5.176;2023-04-01T07:53:02;9.50;99.90
19941;DHT22;10132;50.864;5.176;2023-04-01T07:55:10;9.50;99.90
19941;DHT22;10132;50.864;5.176;2023-04-01T07:57:20;9.60;99.90
19941;DHT22;10132;50.864;5.176;2023-04-01T07:59:27;9.50;99.90
19941;DHT22;10132;50.864;5.176;2023-04-01T08:01:35;9.50;99.90
19941;DHT22;10132;50.864;5.176;2023-04-01T08:03:50;9.40;99.90
19941;DHT22;10132;50.864;5.176;2023-04-01T08:05:59;9.50;99.90
19941;DHT22;10132;50.864;5.176;2023-04-01T08:08:10;9.50;99.90
19941;DHT22;10132;50.864;5.176;2023-04-01T08:10:19;9.50;99.90
19941;DHT22;10132;50.864;5.176;2023-04-01T08:12:33;9.40;99.90
19941;DHT22;10132;50.864;5.176;2023-04-01T08:14:47;9.50;99.90
19941;DHT22;10132;50.864;5.176;2023-04-01T08:16:59;9.50;99.90
19941;DHT22;10132;50.864;5.176;2023-04-01T08:19:13;9.60;99.90
19941;DHT22;10132;50.864;5.176;2023-04-01T08:21:21;9.60;99.90
19941;DHT22;10132;50.864;5.176;2023-04-01T08:23:27;9.60;99.90
19941;DHT22;10132;50.864;5.176;2023-04-01T08:25:30;9.60;99.90
19941;DHT22;10132;50.864;5.176;2023-04-01T08:27:37;9.70;99.90
19941;DHT22;10132;50.864;5.176;2023-04-01T08:29:44;9.70;99.90
19941;DHT22;10132;50.864;5.176;2023-04-01T08:31:53;9.70;99.90
19941;DHT22;10132;50.864;5.176;2023-04-01T08:33:57;9.80;99.90
19941;DHT22;10132;50.864;5.176;2023-04-01T08:36:05;9.70;99.90
19941;DHT22;10132;50.864;5.176;2023-04-01T08:38:12;9.80;99.90
19941;DHT22;10132;50.864;5.176;2023-04-01T08:40:46;9.80;99.90
19941;DHT22;10132;50.864;5.176;2023-04-01T08:43:00;9.90;99.90
19941;DHT22;10132;50.864;5.176;2023-04-01T08:45:29;9.90;99.90
19941;DHT22;10132;50.864;5.176;2023-04-01T08:47:50;9.80;99.90
19941;DHT22;10132;50.864;5.176;2023-04-01T08:50:23;9.80;99.90
19941;DHT22;10132;50.864;5.176;2023-04-01T08:52:33;9.70;99.90
19941;DHT22;10132;50.864;5.176;2023-04-01T08:54:57;9.70;99.90
19941;DHT22;10132;50.864;5.176;2023-04-01T08:57:09;9.70;99.90
19941;DHT22;10132;50.864;5.176;2023-04-01T09:02:05;9.80;99.90
19941;DHT22;10132;50.864;5.176;2023-04-01T09:04:31;9.80;99.90
19941;DHT22;10132;50.864;5.176;2023-04-01T09:06:46;9.70;99.90
19941;DHT22;10132;50.864;5.176;2023-04-01T09:09:02;9.70;99.90
19941;DHT22;10132;50.864;5.176;2023-04-01T09:11:17;9.60;99.90
19941;DHT22;10132;50.864;5.176;2023-04-01T09:13:39;9.60;99.90
19941;DHT22;10132;50.864;5.176;2023-04-01T09:15:58;9.70;99.90
19941;DHT22;10132;50.864;5.176;2023-04-01T09:21:02;9.80;99.90
19941;DHT22;10132;50.864;5.176;2023-04-01T09:23:28;9.90;99.90
19941;DHT22;10132;50.864;5.176;2023-04-01T09:25:41;10.00;99.90
19941;DHT22;10132;50.864;5.176;2023-04-01T09:27:56;10.10;99.90
19941;DHT22;10132;50.864;5.176;2023-04-01T09:30:33;10.10;99.90
19941;DHT22;10132;50.864;5.176;2023-04-01T09:32:53;10.20;99.90
19941;DHT22;10132;50.864;5.176;2023-04-01T09:35:15;10.20;99.90
19941;DHT22;10132;50.864;5.176;2023-04-01T09:37:19;10.20;99.90
19941;DHT22;10132;50.864;5.176;2023-04-01T09:39:35;10.20;99.90
19941;DHT22;10132;50.864;5.176;2023-04-01T09:41:48;10.10;99.90
19941;DHT22;10132;50.864;5.176;2023-04-01T09:44:02;10.10;99.90
19941;DHT22;10132;50.864;5.176;2023-04-01T09:46:17;10.10;99.90
19941;DHT22;10132;50.864;5.176;2023-04-01T09:51:17;10.20;99.90
19941;DHT22;10132;50.864;5.176;2023-04-01T09:53:36;10.30;99.90
19941;DHT22;10132;50.864;5.176;2023-04-01T09:56:16;10.30;99.90
19941;DHT22;10132;50.864;5.176;2023-04-01T09:59:08;10.40;99.90
19941;DHT22;10132;50.864;5.176;2023-04-01T10:01:40;10.30;99.90
19941;DHT22;10132;50.864;5.176;2023-04-01T10:06:34;10.50;99.90
19941;DHT22;10132;50.864;5.176;2023-04-01T10:09:18;10.50;99.90
19941;DHT22;10132;50.864;5.176;2023-04-01T10:14:37;10.40;99.90
19941;DHT22;10132;50.864;5.176;2023-04-01T10:17:18;10.60;99.90
19941;DHT22;10132;50.864;5.176;2023-04-01T10:19:55;10.50;99.90
19941;DHT22;10132;50.864;5.176;2023-04-01T10:22:42;10.50;99.90
19941;DHT22;10132;50.864;5.176;2023-04-01T10:25:13;10.70;99.90
19941;DHT22;10132;50.864;5.176;2023-04-01T10:27:36;10.70;99.90
19941;DHT22;10132;50.864;5.176;2023-04-01T10:30:06;10.60;99.90
19941;DHT22;10132;50.864;5.176;2023-04-01T10:37:50;10.70;99.90
19941;DHT22;10132;50.864;5.176;2023-04-01T10:40:19;10.80;99.90
19941;DHT22;10132;50.864;5.176;2023-04-01T10:50:40;10.90;99.90
19941;DHT22;10132;50.864;5.176;2023-04-01T10:53:30;10.80;99.90
19941;DHT22;10132;50.864;5.176;2023-04-01T10:58:41;10.80;99.90
19941;DHT22;10132;50.864;5.176;2023-04-01T11:01:07;10.60;99.90
19941;DHT22;10132;50.864;5.176;2023-04-01T11:03:56;10.70;99.90
19941;DHT22;10132;50.864;5.176;2023-04-01T11:06:29;10.80;99.90
19941;DHT22;10132;50.864;5.176;2023-04-01T11:09:07;10.80;99.90
19941;DHT22;10132;50.864;5.176;2023-04-01T11:11:45;10.80;99.90
19941;DHT22;10132;50.864;5.176;2023-04-01T11:14:27;11.10;99.90
19941;DHT22;10132;50.864;5.176;2023-04-01T11:24:51;11.10;99.90
19941;DHT22;10132;50.864;5.176;2023-04-01T11:27:05;11.10;99.90
19941;DHT22;10132;50.864;5.176;2023-04-01T11:29:47;11.30;99.90
19941;DHT22;10132;50.864;5.176;2023-04-01T11:32:02;11.30;99.90
19941;DHT22;10132;50.864;5.176;2023-04-01T11:34:16;11.40;99.90
19941;DHT22;10132;50.864;5.176;2023-04-01T11:36:30;11.40;99.90
19941;DHT22;10132;50.864;5.176;2023-04-01T11:38:54;11.30;99.90
19941;DHT22;10132;50.864;5.176;2023-04-01T11:41:07;11.20;99.90
19941;DHT22;10132;50.864;5.176;2023-04-01T11:43:18;11.10;99.90
19941;DHT22;10132;50.864;5.176;2023-04-01T11:45:32;11.10;99.90
19941;DHT22;10132;50.864;5.176;2023-04-01T11:50:24;11.30;99.90
19941;DHT22;10132;50.864;5.176;2023-04-01T11:52:43;11.30;99.90
19941;DHT22;10132;50.864;5.176;2023-04-01T11:55:02;11.30;99.90
19941;DHT22;10132;50.864;5.176;2023-04-01T11:57:31;11.50;99.90
19941;DHT22;10132;50.864;5.176;2023-04-01T11:59:57;11.50;99.90
19941;DHT22;10132;50.864;5.176;2023-04-01T12:02:08;11.50;99.90
19941;DHT22;10132;50.864;5.176;2023-04-01T12:04:31;11.30;99.90
19941;DHT22;10132;50.864;5.176;2023-04-01T12:06:43;11.20;99.90
19941;DHT22;10132;50.864;5.176;2023-04-01T12:08:51;11.00;99.90
19941;DHT22;10132;50.864;5.176;2023-04-01T12:11:03;11.00;99.90
19941;DHT22;10132;50.864;5.176;2023-04-01T12:13:17;10.90;99.90
19941;DHT22;10132;50.864;5.176;2023-04-01T12:15:26;11.00;99.90
19941;DHT22;10132;50.864;5.176;2023-04-01T12:17:36;11.20;99.90
19941;DHT22;10132;50.864;5.176;2023-04-01T12:19:46;11.40;99.90
19941;DHT22;10132;50.864;5.176;2023-04-01T12:22:03;11.50;99.90
19941;DHT22;10132;50.864;5.176;2023-04-01T12:24:29;11.40;99.90
19941;DHT22;10132;50.864;5.176;2023-04-01T12:26:55;11.40;99.90
19941;DHT22;10132;50.864;5.176;2023-04-01T12:29:16;11.20;99.90
19941;DHT22;10132;50.864;5.176;2023-04-01T12:31:31;11.20;99.90
19941;DHT22;10132;50.864;5.176;2023-04-01T12:33:52;11.40;99.90
19941;DHT22;10132;50.864;5.176;2023-04-01T12:36:07;11.50;99.90
19941;DHT22;10132;50.864;5.176;2023-04-01T12:38:21;11.70;99.90
19941;DHT22;10132;50.864;5.176;2023-04-01T12:40:39;11.80;99.90
19941;DHT22;10132;50.864;5.176;2023-04-01T12:42:55;12.00;99.90
19941;DHT22;10132;50.864;5.176;2023-04-01T12:45:20;12.10;99.90
19941;DHT22;10132;50.864;5.176;2023-04-01T12:50:23;11.60;99.90
19941;DHT22;10132;50.864;5.176;2023-04-01T12:52:38;11.50;99.90
19941;DHT22;10132;50.864;5.176;2023-04-01T12:55:01;11.50;99.90
19941;DHT22;10132;50.864;5.176;2023-04-01T12:57:17;11.50;99.90
19941;DHT22;10132;50.864;5.176;2023-04-01T12:59:33;11.50;99.90
19941;DHT22;10132;50.864;5.176;2023-04-01T13:02:01;11.50;99.90
19941;DHT22;10132;50.864;5.176;2023-04-01T13:06:48;11.40;99.90
19941;DHT22;10132;50.864;5.176;2023-04-01T13:08:59;11.30;99.90
19941;DHT22;10132;50.864;5.176;2023-04-01T13:11:16;11.30;99.90
19941;DHT22;10132;50.864;5.176;2023-04-01T13:15:52;11.00;99.90
19941;DHT22;10132;50.864;5.176;2023-04-01T13:18:05;10.80;99.90
19941;DHT22;10132;50.864;5.176;2023-04-01T13:20:16;10.70;99.90
19941;DHT22;10132;50.864;5.176;2023-04-01T13:22:27;10.80;99.90
19941;DHT22;10132;50.864;5.176;2023-04-01T13:24:41;10.80;99.90
19941;DHT22;10132;50.864;5.176;2023-04-01T13:26:55;10.90;99.90
19941;DHT22;10132;50.864;5.176;2023-04-01T13:29:04;11.10;99.90
19941;DHT22;10132;50.864;5.176;2023-04-01T13:31:17;11.10;99.90
19941;DHT22;10132;50.864;5.176;2023-04-01T13:33:29;11.10;99.90
19941;DHT22;10132;50.864;5.176;2023-04-01T13:35:41;11.10;99.90
19941;DHT22;10132;50.864;5.176;2023-04-01T13:40:51;11.20;99.90
19941;DHT22;10132;50.864;5.176;2023-04-01T13:43:02;11.30;99.90
19941;DHT22;10132;50.864;5.176;2023-04-01T13:45:14;11.40;99.90
19941;DHT22;10132;50.864;5.176;2023-04-01T13:50:17;11.30;99.90
19941;DHT22;10132;50.864;5.176;2023-04-01T13:52:39;10.90;99.90
19941;DHT22;10132;50.864;5.176;2023-04-01T13:54:58;10.80;99.90
19941;DHT22;10132;50.864;5.176;2023-04-01T13:57:17;10.80;99.90
19941;DHT22;10132;50.864;5.176;2023-04-01T13:59:52;10.80;99.90
19941;DHT22;10132;50.864;5.176;2023-04-01T14:02:14;10.80;99.90
19941;DHT22;10132;50.864;5.176;2023-04-01T14:04:47;10.90;99.90
19941;DHT22;10132;50.864;5.176;2023-04-01T14:07:00;10.90;99.90
19941;DHT22;10132;50.864;5.176;2023-04-01T14:09:20;10.80;99.90
19941;DHT22;10132;50.864;5.176;2023-04-01T14:11:30;10.70;99.90
19941;DHT22;10132;50.864;5.176;2023-04-01T14:13:43;10.90;99.90
19941;DHT22;10132;50.864;5.176;2023-04-01T14:16:11;10.90;99.90
19941;DHT22;10132;50.864;5.176;2023-04-01T14:18:34;10.90;99.90
19941;DHT22;10132;50.864;5.176;2023-04-01T14:20:42;11.00;99.90
19941;DHT22;10132;50.864;5.176;2023-04-01T14:23:06;10.90;99.90
19941;DHT22;10132;50.864;5.176;2023-04-01T14:25:25;10.90;99.90
19941;DHT22;10132;50.864;5.176;2023-04-01T14:27:41;10.80;99.90
19941;DHT22;10132;50.864;5.176;2023-04-01T14:29:57;10.70;99.90
19941;DHT22;10132;50.864;5.176;2023-04-01T14:32:11;10.50;99.90
19941;DHT22;10132;50.864;5.176;2023-04-01T14:34:25;10.50;99.90
19941;DHT22;10132;50.864;5.176;2023-04-01T14:36:59;10.60;99.90
19941;DHT22;10132;50.864;5.176;2023-04-01T14:39:22;10.40;99.90
19941;DHT22;10132;50.864;5.176;2023-04-01T14:41:38;10.40;99.90
19941;DHT22;10132;50.864;5.176;2023-04-01T14:44:17;10.40;99.90
19941;DHT22;10132;50.864;5.176;2023-04-01T14:46:46;10.40;99.90
19941;DHT22;10132;50.864;5.176;2023-04-01T14:48:57;10.30;99.90
19941;DHT22;10132;50.864;5.176;2023-04-01T14:51:08;10.30;99.90
19941;DHT22;10132;50.864;5.176;2023-04-01T14:53:16;10.30;99.90
19941;DHT22;10132;50.864;5.176;2023-04-01T14:55:33;10.30;99.90